createdAt,value
2024-02-17T00:00:02.734Z,4.62
2024-02-17T00:02:29.430Z,4.01
2024-02-17T00:04:56.121Z,3.90
2024-02-17T00:07:22.841Z,3.69
2024-02-17T00:09:49.458Z,3.83
2024-02-17T00:12:16.146Z,3.67
2024-02-17T00:14:42.712Z,3.40
2024-02-17T00:17:09.303Z,3.54
2024-02-17T00:19:36.019Z,3.97
2024-02-17T00:22:02.525Z,3.92
2024-02-17T00:24:29.128Z,3.53
2024-02-17T00:26:55.645Z,3.59
2024-02-17T00:29:22.114Z,3.63
2024-02-17T00:31:48.483Z,3.49
2024-02-17T00:34:16.048Z,3.83
2024-02-17T00:36:42.698Z,3.85
2024-02-17T00:39:09.848Z,3.88
2024-02-17T00:41:37.495Z,4.35
2024-02-17T00:44:04.478Z,4.83
2024-02-17T00:46:31.130Z,4.41
2024-02-17T00:48:57.613Z,4.25
2024-02-17T00:51:24.990Z,3.97
2024-02-17T00:53:51.488Z,4.15
2024-02-17T00:56:17.913Z,3.78
2024-02-17T00:58:44.350Z,3.71
2024-02-17T01:01:14.827Z,3.95
2024-02-17T01:03:47.040Z,3.76
2024-02-17T01:06:13.745Z,3.65
2024-02-17T01:08:40.250Z,3.65
2024-02-17T01:11:06.706Z,3.88
2024-02-17T01:13:33.212Z,3.62
2024-02-17T01:15:59.728Z,3.50
2024-02-17T01:18:26.431Z,3.64
2024-02-17T01:20:53.026Z,3.43
2024-02-17T01:23:20.341Z,3.79
2024-02-17T01:25:46.904Z,3.43
2024-02-17T01:28:13.628Z,3.25
2024-02-17T01:30:40.276Z,3.34
2024-02-17T01:33:06.953Z,3.51
2024-02-17T01:35:33.838Z,3.32
2024-02-17T01:38:00.482Z,3.46
2024-02-17T01:40:27.003Z,3.37
2024-02-17T01:42:54.522Z,3.54
2024-02-17T01:45:21.190Z,3.33
2024-02-17T01:47:48.522Z,3.30
2024-02-17T01:50:15.522Z,3.60
2024-02-17T01:52:42.404Z,3.47
2024-02-17T01:55:09.380Z,3.37
2024-02-17T01:57:36.152Z,3.36
2024-02-17T02:00:03.767Z,3.05
2024-02-17T02:02:31.209Z,3.34
2024-02-17T02:04:58.082Z,3.41
2024-02-17T02:07:24.776Z,3.71
2024-02-17T02:09:51.642Z,3.56
2024-02-17T02:12:18.293Z,3.53
2024-02-17T02:14:45.156Z,3.47
2024-02-17T02:17:11.710Z,3.47
2024-02-17T02:19:38.310Z,3.09
2024-02-17T02:22:04.910Z,3.13
2024-02-17T02:24:31.859Z,3.35
2024-02-17T02:26:58.425Z,3.04
2024-02-17T02:29:25.101Z,2.89
2024-02-17T02:31:51.671Z,3.15
2024-02-17T02:34:18.328Z,2.93
2024-02-17T02:36:45.050Z,3.05
2024-02-17T02:39:11.736Z,3.20
2024-02-17T02:41:38.302Z,3.13
2024-02-17T02:44:05.021Z,3.03
2024-02-17T02:46:31.586Z,3.11
2024-02-17T02:48:58.156Z,2.85
2024-02-17T02:51:24.807Z,3.08
2024-02-17T02:53:51.416Z,3.09
2024-02-17T02:56:17.996Z,3.19
2024-02-17T02:58:44.563Z,2.90
2024-02-17T03:01:11.179Z,3.10
2024-02-17T03:03:37.962Z,2.81
2024-02-17T03:06:04.710Z,2.64
2024-02-17T03:08:31.264Z,2.74
2024-02-17T03:10:57.842Z,2.87
2024-02-17T03:13:24.542Z,2.77
2024-02-17T03:15:51.308Z,2.63
2024-02-17T03:18:18.122Z,2.53
2024-02-17T03:20:44.762Z,2.61
2024-02-17T03:23:11.316Z,2.69
2024-02-17T03:25:37.875Z,2.48
2024-02-17T03:28:04.703Z,2.70
2024-02-17T03:30:31.392Z,2.65
2024-02-17T03:32:58.044Z,2.57
2024-02-17T03:35:24.720Z,2.38
2024-02-17T03:37:51.377Z,2.53
2024-02-17T03:40:18.015Z,2.33
2024-02-17T03:42:44.595Z,2.24
2024-02-17T03:45:11.184Z,2.14
2024-02-17T03:47:37.818Z,2.14
2024-02-17T03:50:04.802Z,2.21
2024-02-17T03:52:31.445Z,2.25
2024-02-17T03:54:58.013Z,2.29
2024-02-17T03:57:24.549Z,2.26
2024-02-17T03:59:51.138Z,2.42
2024-02-17T04:02:17.699Z,2.23
2024-02-17T04:04:44.353Z,2.14
2024-02-17T04:07:10.991Z,2.18
2024-02-17T04:09:37.648Z,1.84
2024-02-17T04:12:04.484Z,2.11
2024-02-17T04:14:31.457Z,2.11
2024-02-17T04:16:58.033Z,2.01
2024-02-17T04:19:24.717Z,1.90
2024-02-17T04:21:51.537Z,2.04
2024-02-17T04:24:18.216Z,2.08
2024-02-17T04:26:44.858Z,2.02
2024-02-17T04:29:11.471Z,2.21
2024-02-17T04:31:38.102Z,2.07
2024-02-17T04:34:04.851Z,2.09
2024-02-17T04:36:31.613Z,2.09
2024-02-17T04:38:58.267Z,2.04
2024-02-17T04:41:24.834Z,2.09
2024-02-17T04:43:51.468Z,2.08
2024-02-17T04:46:18.156Z,2.17
2024-02-17T04:48:44.767Z,2.18
2024-02-17T04:51:11.415Z,2.06
2024-02-17T04:53:38.053Z,2.10
2024-02-17T04:56:05.109Z,2.14
2024-02-17T04:58:31.725Z,2.06
2024-02-17T05:00:58.579Z,2.19
2024-02-17T05:03:25.369Z,2.21
2024-02-17T05:05:52.160Z,2.24
2024-02-17T05:08:18.936Z,2.62
2024-02-17T05:10:45.444Z,3.03
2024-02-17T05:13:15.165Z,2.80
2024-02-17T05:15:41.787Z,2.17
2024-02-17T05:18:09.847Z,2.25
2024-02-17T05:20:36.671Z,2.09
2024-02-17T05:23:03.285Z,2.07
2024-02-17T05:25:38.122Z,2.06
2024-02-17T05:28:05.083Z,2.03
2024-02-17T05:30:31.834Z,1.99
2024-02-17T05:32:58.468Z,1.99
2024-02-17T05:35:25.131Z,1.86
2024-02-17T05:37:51.724Z,1.85
2024-02-17T05:40:18.205Z,1.72
2024-02-17T05:42:45.143Z,1.74
2024-02-17T05:45:11.869Z,1.93
2024-02-17T05:47:38.346Z,1.84
2024-02-17T05:50:05.789Z,1.95
2024-02-17T05:52:32.455Z,1.91
2024-02-17T05:54:59.097Z,2.13
2024-02-17T05:57:25.652Z,2.61
2024-02-17T05:59:52.215Z,3.10
2024-02-17T06:02:18.663Z,2.75
2024-02-17T06:04:45.180Z,2.93
2024-02-17T06:07:11.864Z,3.20
2024-02-17T06:09:38.458Z,3.34
2024-02-17T06:12:05.494Z,3.50
2024-02-17T06:14:31.993Z,3.93
2024-02-17T06:16:58.360Z,4.25
2024-02-17T06:19:24.890Z,4.60
2024-02-17T06:21:51.740Z,4.35
2024-02-17T06:24:18.429Z,4.79
2024-02-17T06:26:44.946Z,4.34
2024-02-17T06:29:11.383Z,4.33
2024-02-17T06:31:39.847Z,4.33
2024-02-17T06:34:07.503Z,4.48
2024-02-17T06:36:34.955Z,4.66
2024-02-17T06:39:01.753Z,4.97
2024-02-17T06:41:28.716Z,4.77
2024-02-17T06:43:55.559Z,4.67
2024-02-17T06:46:22.306Z,4.55
2024-02-17T06:48:48.799Z,4.67
2024-02-17T06:51:15.397Z,4.23
2024-02-17T06:53:41.965Z,3.71
2024-02-17T06:56:08.476Z,3.32
2024-02-17T06:58:34.865Z,4.14
2024-02-17T07:01:01.416Z,4.99
2024-02-17T07:03:28.022Z,4.92
2024-02-17T07:05:54.553Z,4.39
2024-02-17T07:08:21.019Z,3.99
2024-02-17T07:10:47.540Z,3.44
2024-02-17T07:13:14.139Z,3.17
2024-02-17T07:15:42.849Z,2.92
2024-02-17T07:18:09.583Z,2.62
2024-02-17T07:20:36.049Z,3.00
2024-02-17T07:23:02.560Z,2.94
2024-02-17T07:25:29.210Z,2.88
2024-02-17T07:27:56.426Z,2.75
2024-02-17T07:30:22.912Z,2.74
2024-02-17T07:32:49.335Z,2.77
2024-02-17T07:35:16.495Z,2.81
2024-02-17T07:37:43.002Z,2.85
2024-02-17T07:40:10.170Z,3.01
2024-02-17T07:42:39.341Z,2.48
2024-02-17T07:45:06.395Z,2.55
2024-02-17T07:47:33.800Z,2.61
2024-02-17T07:50:03.667Z,2.64
2024-02-17T07:52:30.360Z,2.25
2024-02-17T07:54:56.964Z,2.10
2024-02-17T07:57:23.632Z,2.23
2024-02-17T07:59:50.545Z,2.57
2024-02-17T08:02:17.196Z,2.58
2024-02-17T08:04:43.909Z,2.50
2024-02-17T08:07:10.549Z,2.50
2024-02-17T08:09:37.019Z,2.72
2024-02-17T08:12:03.680Z,2.75
2024-02-17T08:14:30.901Z,2.86
2024-02-17T08:16:57.593Z,3.27
2024-02-17T08:19:24.224Z,3.38
2024-02-17T08:21:50.746Z,3.50
2024-02-17T08:24:17.217Z,3.88
2024-02-17T08:26:43.730Z,3.32
2024-02-17T08:29:10.097Z,3.15
2024-02-17T08:31:36.516Z,3.18
2024-02-17T08:34:03.125Z,3.26
2024-02-17T08:36:29.943Z,3.22
2024-02-17T08:38:56.910Z,3.96
2024-02-17T08:41:23.394Z,7.25
2024-02-17T08:43:49.889Z,9.47
2024-02-17T08:46:16.553Z,11.51
2024-02-17T08:48:43.394Z,13.58
2024-02-17T08:51:10.062Z,13.66
2024-02-17T08:53:36.588Z,13.07
2024-02-17T08:56:03.129Z,13.34
2024-02-17T08:58:29.639Z,12.54
2024-02-17T09:00:56.212Z,12.31
2024-02-17T09:03:22.946Z,13.84
2024-02-17T09:05:49.534Z,12.07
2024-02-17T09:08:16.192Z,12.16
2024-02-17T09:10:42.952Z,14.98
2024-02-17T09:13:09.802Z,14.81
2024-02-17T09:15:36.463Z,12.28
2024-02-17T09:18:03.219Z,12.39
2024-02-17T09:20:29.946Z,12.55
2024-02-17T09:22:56.590Z,12.14
2024-02-17T09:25:23.204Z,11.70
2024-02-17T09:27:50.003Z,12.07
2024-02-17T09:30:17.000Z,12.65
2024-02-17T09:32:43.901Z,14.08
2024-02-17T09:35:10.657Z,12.16
2024-02-17T09:37:37.478Z,12.74
2024-02-17T09:40:04.470Z,13.74
2024-02-17T09:42:31.212Z,12.50
2024-02-17T09:44:57.944Z,13.14
2024-02-17T09:47:26.464Z,12.66
2024-02-17T09:49:53.989Z,13.70
2024-02-17T09:52:20.744Z,13.27
2024-02-17T09:54:47.612Z,13.00
2024-02-17T09:57:14.374Z,13.33
2024-02-17T09:59:40.807Z,12.95
2024-02-17T10:02:09.983Z,13.84
2024-02-17T10:04:41.390Z,17.65
2024-02-17T10:07:08.011Z,14.07
2024-02-17T10:09:35.673Z,14.37
2024-02-17T10:12:02.217Z,13.04
2024-02-17T10:14:29.072Z,13.48
2024-02-17T10:16:58.944Z,14.70
2024-02-17T10:19:26.168Z,12.34
2024-02-17T10:21:54.882Z,12.43
2024-02-17T10:24:22.212Z,12.71
2024-02-17T10:26:56.045Z,12.80
2024-02-17T10:29:24.505Z,12.34
2024-02-17T10:31:51.099Z,12.55
2024-02-17T10:34:18.398Z,12.28
2024-02-17T10:36:45.064Z,12.07
2024-02-17T10:39:11.925Z,12.20
2024-02-17T10:41:39.226Z,11.65
2024-02-17T10:44:06.709Z,12.65
2024-02-17T10:46:35.233Z,11.21
2024-02-17T10:49:19.324Z,10.92
2024-02-17T10:51:57.439Z,11.31
2024-02-17T10:54:34.955Z,11.33
2024-02-17T10:57:06.786Z,11.35
2024-02-17T10:59:35.392Z,11.32
2024-02-17T11:02:03.763Z,10.43
2024-02-17T11:04:32.372Z,10.84
2024-02-17T11:07:00.111Z,10.90
2024-02-17T11:09:26.980Z,11.69
2024-02-17T11:11:53.467Z,11.28
2024-02-17T11:14:59.237Z,11.34
2024-02-17T11:17:25.912Z,11.47
2024-02-17T11:20:05.508Z,11.48
2024-02-17T11:22:32.013Z,11.19
2024-02-17T11:24:58.731Z,11.52
2024-02-17T11:27:26.706Z,11.17
2024-02-17T11:29:53.403Z,11.36
2024-02-17T11:32:19.861Z,11.60
2024-02-17T11:34:48.916Z,11.60
2024-02-17T11:37:17.467Z,11.55
2024-02-17T11:39:44.704Z,12.31
2024-02-17T11:42:12.332Z,11.91
2024-02-17T11:44:40.053Z,11.47
2024-02-17T11:47:06.699Z,12.44
2024-02-17T11:49:36.534Z,12.80
2024-02-17T11:52:03.834Z,12.57
2024-02-17T11:54:30.784Z,12.55
2024-02-17T11:56:57.507Z,12.13
2024-02-17T11:59:28.319Z,12.32
2024-02-17T12:02:00.778Z,12.27
2024-02-17T12:04:27.342Z,10.52
2024-02-17T12:06:53.931Z,10.53
2024-02-17T12:09:20.492Z,11.81
2024-02-17T12:11:47.242Z,11.03
2024-02-17T12:14:13.888Z,11.45
2024-02-17T12:16:40.365Z,7.26
2024-02-17T12:19:13.115Z,5.01
2024-02-17T12:21:42.195Z,2.41
2024-02-17T12:24:09.666Z,5.62
2024-02-17T12:26:45.531Z,10.98
2024-02-17T12:29:15.679Z,11.88
2024-02-17T12:31:43.386Z,11.25
2024-02-17T12:34:09.972Z,11.54
2024-02-17T12:36:36.820Z,10.83
2024-02-17T12:39:03.861Z,10.39
2024-02-17T12:41:30.529Z,10.76
2024-02-17T12:43:57.504Z,10.63
2024-02-17T12:46:27.083Z,10.88
2024-02-17T12:48:54.900Z,10.62
2024-02-17T12:51:23.140Z,10.42
2024-02-17T12:53:50.688Z,11.02
2024-02-17T12:56:20.020Z,10.70
2024-02-17T12:58:48.573Z,10.42
2024-02-17T13:01:14.996Z,10.40
2024-02-17T13:03:41.485Z,10.53
2024-02-17T13:06:08.338Z,10.45
2024-02-17T13:08:35.448Z,11.15
2024-02-17T13:11:02.464Z,11.18
2024-02-17T13:13:28.944Z,10.99
2024-02-17T13:15:55.401Z,10.72
2024-02-17T13:18:22.031Z,9.87
2024-02-17T13:20:48.805Z,7.85
2024-02-17T13:23:15.390Z,6.63
2024-02-17T13:25:41.872Z,6.45
2024-02-17T13:28:08.336Z,4.90
2024-02-17T13:30:35.037Z,4.74
2024-02-17T13:33:02.197Z,4.54
2024-02-17T13:35:29.031Z,4.52
2024-02-17T13:37:55.718Z,5.05
2024-02-17T13:40:22.708Z,5.37
2024-02-17T13:42:49.347Z,5.56
2024-02-17T13:48:01.951Z,6.07
2024-02-17T13:50:32.766Z,5.94
2024-02-17T13:53:05.049Z,5.37
2024-02-17T13:55:35.258Z,5.60
2024-02-17T13:58:03.230Z,5.35
2024-02-17T14:00:30.409Z,5.60
2024-02-17T14:03:04.076Z,5.93
2024-02-17T14:05:36.037Z,5.53
2024-02-17T14:08:03.152Z,5.36
2024-02-17T14:10:30.040Z,5.42
2024-02-17T14:12:57.756Z,5.30
2024-02-17T14:15:24.528Z,5.71
2024-02-17T14:17:51.337Z,5.64
2024-02-17T14:20:18.237Z,5.66
2024-02-17T14:22:44.899Z,5.61
2024-02-17T14:25:14.349Z,5.63
2024-02-17T14:27:43.744Z,5.04
2024-02-17T14:30:11.227Z,4.89
2024-02-17T14:32:37.970Z,4.64
2024-02-17T14:35:05.256Z,4.24
2024-02-17T14:37:31.958Z,4.24
2024-02-17T14:39:58.789Z,4.78
2024-02-17T14:42:25.672Z,4.55
2024-02-17T14:44:52.449Z,3.97
2024-02-17T14:47:19.161Z,3.59
2024-02-17T14:49:46.345Z,3.50
2024-02-17T14:55:19.478Z,3.70
2024-02-17T15:03:38.287Z,2.16
2024-02-17T15:09:41.214Z,2.26
2024-02-17T15:20:54.529Z,3.47
2024-02-17T15:26:17.263Z,3.45
2024-02-17T15:28:45.025Z,3.32
2024-02-17T15:31:19.348Z,3.39
2024-02-17T15:33:52.584Z,3.58
2024-02-17T15:36:46.640Z,3.82
2024-02-17T15:39:14.803Z,3.97
2024-02-17T15:41:41.528Z,4.13
2024-02-17T15:44:09.507Z,4.20
2024-02-17T15:46:36.734Z,3.91
2024-02-17T15:49:04.532Z,4.16
2024-02-17T15:51:53.698Z,4.18
2024-02-17T15:54:21.842Z,4.11
2024-02-17T15:56:48.547Z,4.34
2024-02-17T15:59:15.702Z,3.94
2024-02-17T16:01:43.155Z,3.84
2024-02-17T16:04:10.721Z,4.15
2024-02-17T16:06:38.370Z,4.14
2024-02-17T16:09:08.219Z,4.00
2024-02-17T16:11:35.974Z,3.87
2024-02-17T16:14:03.195Z,3.89
2024-02-17T16:16:31.286Z,3.80
2024-02-17T16:19:03.998Z,3.30
2024-02-17T16:24:16.068Z,3.34
2024-02-17T16:26:47.104Z,3.23
2024-02-17T16:29:13.596Z,3.63
2024-02-17T16:31:39.996Z,3.39
2024-02-17T16:34:06.419Z,3.24
2024-02-17T16:36:33.075Z,3.38
2024-02-17T16:39:06.076Z,3.41
2024-02-17T16:41:32.784Z,3.37
2024-02-17T16:43:59.843Z,3.55
2024-02-17T16:46:26.289Z,3.84
2024-02-17T16:48:52.946Z,4.01
2024-02-17T16:51:19.556Z,4.41
2024-02-17T16:53:46.135Z,4.30
2024-02-17T16:56:13.483Z,4.38
2024-02-17T16:58:39.994Z,4.85
2024-02-17T17:01:06.923Z,5.19
2024-02-17T17:03:33.536Z,6.03
2024-02-17T17:06:00.102Z,6.22
2024-02-17T17:08:26.681Z,7.06
2024-02-17T17:10:53.217Z,6.78
2024-02-17T17:13:19.782Z,7.03
2024-02-17T17:15:46.973Z,6.92
2024-02-17T17:18:14.146Z,7.01
2024-02-17T17:23:21.541Z,7.06
2024-02-17T17:25:48.593Z,7.15
2024-02-17T17:28:15.194Z,6.76
2024-02-17T17:30:41.706Z,7.09
2024-02-17T17:33:08.974Z,7.21
2024-02-17T17:35:35.692Z,6.13
2024-02-17T17:38:02.264Z,5.83
2024-02-17T17:40:28.755Z,5.31
2024-02-17T17:42:59.746Z,5.19
2024-02-17T17:45:29.726Z,5.16
2024-02-17T17:47:59.457Z,4.99
2024-02-17T17:50:26.765Z,4.55
2024-02-17T17:52:55.278Z,4.62
2024-02-17T17:55:22.529Z,4.39
2024-02-17T17:57:49.615Z,4.15
2024-02-17T18:00:17.069Z,4.31
2024-02-17T18:02:44.081Z,4.07
2024-02-17T18:05:10.556Z,3.99
2024-02-17T18:07:37.121Z,3.69
2024-02-17T18:10:03.933Z,6.02
2024-02-17T18:12:30.437Z,4.40
2024-02-17T18:14:57.194Z,3.58
2024-02-17T18:17:23.622Z,3.51
2024-02-17T18:19:50.093Z,3.21
2024-02-17T18:22:16.523Z,2.89
2024-02-17T18:24:43.755Z,2.82
2024-02-17T18:27:10.448Z,2.80
2024-02-17T18:29:38.429Z,2.72
2024-02-17T18:32:05.214Z,2.71
2024-02-17T18:34:31.669Z,2.58
2024-02-17T18:36:58.579Z,2.68
2024-02-17T18:39:25.175Z,2.42
2024-02-17T18:41:51.805Z,2.55
2024-02-17T18:44:21.586Z,2.31
2024-02-17T18:46:55.090Z,2.45
2024-02-17T18:49:23.315Z,2.39
2024-02-17T18:51:49.917Z,2.26
2024-02-17T18:54:16.656Z,2.69
2024-02-17T18:56:43.238Z,2.22
2024-02-17T18:59:12.271Z,2.03
2024-02-17T19:01:39.244Z,2.06
2024-02-17T19:04:06.038Z,1.97
2024-02-17T19:06:32.904Z,2.01
2024-02-17T19:09:00.107Z,1.91
2024-02-17T19:14:09.008Z,1.99
2024-02-17T19:16:36.599Z,2.04
2024-02-17T19:19:03.518Z,1.86
2024-02-17T19:21:39.752Z,2.11
2024-02-17T19:24:09.327Z,2.27
2024-02-17T19:26:35.962Z,2.38
2024-02-17T19:29:02.547Z,2.41
2024-02-17T19:31:29.352Z,2.27
2024-02-17T19:33:56.272Z,2.32
2024-02-17T19:36:23.133Z,2.43
2024-02-17T19:38:49.536Z,2.80
2024-02-17T19:41:16.001Z,2.23
2024-02-17T19:43:44.638Z,2.24
2024-02-17T19:46:12.572Z,2.17
2024-02-17T19:48:39.076Z,2.01
2024-02-17T19:51:09.924Z,2.27
2024-02-17T19:53:38.360Z,2.48
2024-02-17T19:56:05.291Z,2.74
2024-02-17T20:01:18.933Z,3.65
2024-02-17T20:06:27.672Z,4.12
2024-02-17T20:18:22.255Z,4.60
2024-02-17T20:20:49.365Z,5.05
2024-02-17T20:23:16.953Z,5.12
2024-02-17T20:25:44.170Z,5.23
2024-02-17T20:28:10.941Z,5.31
2024-02-17T20:30:37.633Z,5.32
2024-02-17T20:33:04.771Z,5.52
2024-02-17T20:35:31.460Z,5.61
2024-02-17T20:37:58.321Z,5.51
2024-02-17T20:40:24.875Z,6.10
2024-02-17T20:42:51.640Z,6.26
2024-02-17T20:45:21.586Z,6.62
2024-02-17T20:47:49.086Z,6.70
2024-02-17T20:50:16.297Z,6.99
2024-02-17T20:52:43.559Z,6.96
2024-02-17T20:57:45.690Z,7.51
2024-02-17T21:00:12.884Z,7.63
2024-02-17T21:02:39.403Z,8.13
2024-02-17T21:05:06.964Z,8.54
2024-02-17T21:10:20.861Z,8.19
2024-02-17T21:12:48.249Z,8.67
2024-02-17T21:15:15.372Z,7.58
2024-02-17T21:17:43.936Z,7.73
2024-02-17T21:20:11.202Z,7.54
2024-02-17T21:22:37.850Z,7.30
2024-02-17T21:25:04.941Z,7.41
2024-02-17T21:27:31.987Z,7.32
2024-02-17T21:29:58.763Z,6.94
2024-02-17T21:32:26.024Z,7.32
2024-02-17T21:34:52.968Z,7.94
2024-02-17T21:37:20.021Z,7.78
2024-02-17T21:39:46.763Z,7.84
2024-02-17T21:42:13.448Z,7.70
2024-02-17T21:44:40.516Z,7.80
2024-02-17T21:47:07.351Z,7.98
2024-02-17T21:49:34.767Z,7.75
2024-02-17T21:52:01.974Z,7.99
2024-02-17T21:54:28.746Z,8.08
2024-02-17T21:56:55.446Z,8.70
2024-02-17T21:59:22.152Z,9.29
2024-02-17T22:01:55.529Z,8.40
2024-02-17T22:04:28.499Z,9.73
2024-02-17T22:06:55.698Z,9.76
2024-02-17T22:09:22.246Z,9.34
2024-02-17T22:11:48.671Z,8.79
2024-02-17T22:14:15.188Z,9.21
2024-02-17T22:16:41.685Z,9.23
2024-02-17T22:19:10.085Z,9.12
2024-02-17T22:21:36.675Z,9.24
2024-02-17T22:24:03.209Z,8.77
2024-02-17T22:26:29.605Z,8.72
2024-02-17T22:28:55.974Z,9.15
2024-02-17T22:31:29.157Z,9.29
2024-02-17T22:33:55.742Z,9.25
2024-02-17T22:36:22.301Z,8.82
2024-02-17T22:38:48.733Z,8.95
2024-02-17T22:41:15.327Z,9.16
2024-02-17T22:43:41.952Z,9.16
2024-02-17T22:46:08.364Z,9.19
2024-02-17T22:48:34.980Z,9.39
2024-02-17T22:51:01.474Z,9.61
2024-02-17T22:53:27.933Z,9.47
2024-02-17T22:55:54.369Z,9.65
2024-02-17T22:58:20.784Z,9.44
2024-02-17T23:00:47.416Z,9.47
2024-02-17T23:03:14.129Z,9.20
2024-02-17T23:05:40.914Z,9.43
2024-02-17T23:08:08.370Z,9.23
2024-02-17T23:10:35.450Z,9.41
2024-02-17T23:13:02.368Z,9.34
2024-02-17T23:15:29.284Z,8.97
2024-02-17T23:17:56.137Z,9.06
2024-02-17T23:20:23.129Z,8.92
2024-02-17T23:22:50.637Z,9.39
2024-02-17T23:25:17.837Z,9.17
2024-02-17T23:27:44.549Z,8.84
2024-02-17T23:30:15.379Z,8.87
2024-02-17T23:32:43.073Z,9.45
2024-02-17T23:35:09.828Z,8.86
2024-02-17T23:37:36.464Z,8.53
2024-02-17T23:40:03.774Z,8.75
2024-02-17T23:42:31.033Z,8.52
2024-02-17T23:44:57.760Z,8.68
2024-02-17T23:47:24.614Z,8.55
2024-02-17T23:49:51.592Z,8.36
2024-02-17T23:52:18.461Z,8.72
2024-02-17T23:54:45.238Z,8.82
2024-02-17T23:57:12.118Z,9.25
2024-02-17T23:59:39.893Z,9.39
